Time;durP1;ratioP1;P1;durP2;ratioP2;P2;SDS_P1;SDS_P2;PMS_P1;PMS_P2;Temp;Humidity;BMP_temperature;BMP_pressure;BME280_temperature;BME280_humidity;BME280_pressure;Samples;Min_cycle;Max_cycle;Signal;HPM_P1;HPM_P2
2022/11/22 00:02:23;;;;;;;30.10;18.83;;;;;;;;;;5070526;28;20124;-72
2022/11/22 00:04:49;;;;;;;30.13;18.65;;;;;;;;;;5083425;28;20135;-73
2022/11/22 00:07:15;;;;;;;32.15;18.55;;;;;;;;;;5086647;28;20040;-72
2022/11/22 00:09:40;;;;;;;29.17;18.13;;;;;;;;;;5070877;28;20045;-73
2022/11/22 00:12:06;;;;;;;31.20;18.95;;;;;;;;;;5085331;28;20467;-73
2022/11/22 00:14:33;;;;;;;33.33;18.58;;;;;;;;;;5080913;28;20139;-71
2022/11/22 00:16:59;;;;;;;27.17;18.30;;;;;;;;;;5088555;28;20092;-73
2022/11/22 00:19:25;;;;;;;27.50;18.17;;;;;;;;;;5086140;28;20787;-73
2022/11/22 00:21:51;;;;;;;28.38;18.52;;;;;;;;;;5081426;28;20052;-72
2022/11/22 00:24:17;;;;;;;33.60;19.33;;;;;;;;;;5085872;28;20387;-72
2022/11/22 00:26:42;;;;;;;29.73;19.10;;;;;;;;;;5088016;28;20040;-73
2022/11/22 00:29:08;;;;;;;29.38;18.58;;;;;;;;;;5086227;28;20045;-71
2022/11/22 00:31:34;;;;;;;28.98;17.77;;;;;;;;;;5087728;28;20073;-70
2022/11/22 00:34:01;;;;;;;28.85;18.38;;;;;;;;;;5090160;28;20035;-70
2022/11/22 00:36:26;;;;;;;27.15;17.98;;;;;;;;;;5102358;28;20391;-69
2022/11/22 00:38:52;;;;;;;27.10;17.90;;;;;;;;;;5087927;28;20039;-70
2022/11/22 00:41:18;;;;;;;30.58;19.10;;;;;;;;;;5104893;28;20036;-70
2022/11/22 00:43:44;;;;;;;28.55;18.63;;;;;;;;;;5088264;28;20581;-71
2022/11/22 00:46:10;;;;;;;26.48;18.75;;;;;;;;;;5085026;28;20044;-70
2022/11/22 00:48:36;;;;;;;30.00;18.42;;;;;;;;;;5091510;28;20051;-72
2022/11/22 00:51:03;;;;;;;29.27;18.83;;;;;;;;;;5095909;27;20039;-72
2022/11/22 00:53:29;;;;;;;32.20;19.10;;;;;;;;;;5087737;28;20087;-72
2022/11/22 00:55:55;;;;;;;26.58;18.92;;;;;;;;;;5108327;27;20115;-72
2022/11/22 00:58:21;;;;;;;29.05;19.13;;;;;;;;;;5106634;28;20035;-71
2022/11/22 01:00:48;;;;;;;30.17;18.98;;;;;;;;;;5089939;28;20048;-71
2022/11/22 01:03:14;;;;;;;29.40;18.90;;;;;;;;;;5106153;27;20108;-71
2022/11/22 01:05:41;;;;;;;27.33;18.10;;;;;;;;;;5091160;28;20044;-72
2022/11/22 01:08:07;;;;;;;29.48;19.10;;;;;;;;;;5089931;28;20047;-70
2022/11/22 01:10:37;;;;;;;34.40;20.15;;;;;;;;;;5089600;28;20050;-72
2022/11/22 01:13:03;;;;;;;30.45;19.70;;;;;;;;;;5081057;28;20148;-70
2022/11/22 01:15:29;;;;;;;32.55;20.05;;;;;;;;;;5089648;28;20387;-70
2022/11/22 01:17:55;;;;;;;29.33;19.52;;;;;;;;;;5107680;28;20039;-72
2022/11/22 01:20:21;;;;;;;30.15;19.70;;;;;;;;;;5088149;28;20044;-71
2022/11/22 01:22:47;;;;;;;32.17;19.40;;;;;;;;;;5092954;28;20044;-70
2022/11/22 01:25:14;;;;;;;32.03;20.05;;;;;;;;;;5088102;28;20551;-70
2022/11/22 01:27:40;;;;;;;31.02;19.80;;;;;;;;;;5090173;28;20405;-70
2022/11/22 01:30:06;;;;;;;32.25;19.65;;;;;;;;;;5091655;27;20406;-71
2022/11/22 01:32:32;;;;;;;32.30;20.15;;;;;;;;;;5089492;28;20092;-70
2022/11/22 01:34:58;;;;;;;30.23;19.17;;;;;;;;;;5085875;28;20043;-72
2022/11/22 01:37:24;;;;;;;29.95;20.00;;;;;;;;;;5088200;28;20056;-73
2022/11/22 01:39:50;;;;;;;32.70;19.75;;;;;;;;;;5083260;28;20047;-72
2022/11/22 01:42:16;;;;;;;31.38;20.33;;;;;;;;;;5088899;28;20498;-71
2022/11/22 01:44:42;;;;;;;31.90;19.80;;;;;;;;;;5086884;28;20048;-72
2022/11/22 01:47:13;;;;;;;30.67;19.52;;;;;;;;;;5088868;28;20131;-73
2022/11/22 01:49:44;;;;;;;31.23;19.73;;;;;;;;;;5107952;27;20043;-74
2022/11/22 01:52:31;;;;;;;32.10;19.58;;;;;;;;;;5088373;28;20054;-74
2022/11/22 01:55:03;;;;;;;33.92;19.33;;;;;;;;;;5086196;28;20043;-72
2022/11/22 01:57:31;;;;;;;33.38;20.48;;;;;;;;;;5089637;28;20889;-72
2022/11/22 02:00:05;;;;;;;32.47;19.00;;;;;;;;;;5094779;28;20050;-73
2022/11/22 02:02:32;;;;;;;33.42;20.42;;;;;;;;;;5090325;28;20568;-70
2022/11/22 02:05:01;;;;;;;36.38;21.40;;;;;;;;;;5088751;28;20466;-74
2022/11/22 02:07:31;;;;;;;35.08;20.52;;;;;;;;;;5088452;28;20138;-73
2022/11/22 02:09:57;;;;;;;33.65;20.20;;;;;;;;;;5088614;28;20039;-73
2022/11/22 02:12:27;;;;;;;33.97;19.65;;;;;;;;;;5084243;28;20062;-74
2022/11/22 02:14:53;;;;;;;30.80;19.45;;;;;;;;;;5085019;28;20047;-71
2022/11/22 02:17:19;;;;;;;35.58;19.83;;;;;;;;;;5092600;28;20517;-73
2022/11/22 02:19:47;;;;;;;32.78;19.15;;;;;;;;;;5089181;28;20047;-72
2022/11/22 02:22:31;;;;;;;33.28;20.55;;;;;;;;;;5085665;28;20131;-71
2022/11/22 02:24:57;;;;;;;33.92;20.15;;;;;;;;;;5072429;28;20046;-72
2022/11/22 02:27:23;;;;;;;33.10;19.77;;;;;;;;;;5086491;28;20040;-73
2022/11/22 02:29:49;;;;;;;34.47;20.05;;;;;;;;;;5086007;28;20075;-71
2022/11/22 02:32:15;;;;;;;31.25;19.75;;;;;;;;;;5088315;28;20075;-72
2022/11/22 02:34:45;;;;;;;32.35;20.10;;;;;;;;;;5087689;28;20044;-72
2022/11/22 02:37:13;;;;;;;34.85;20.63;;;;;;;;;;5083728;28;20046;-71
2022/11/22 02:39:41;;;;;;;30.25;19.23;;;;;;;;;;5082951;28;20100;-70
2022/11/22 02:42:07;;;;;;;32.22;19.88;;;;;;;;;;5086429;28;20079;-72
2022/11/22 02:44:33;;;;;;;34.83;19.85;;;;;;;;;;5103456;28;20168;-72
2022/11/22 02:46:59;;;;;;;33.63;19.23;;;;;;;;;;5086922;28;20122;-72
2022/11/22 02:49:25;;;;;;;33.95;20.20;;;;;;;;;;5088219;27;20127;-72
2022/11/22 02:51:52;;;;;;;32.90;20.27;;;;;;;;;;5090643;28;20044;-71
2022/11/22 02:54:18;;;;;;;32.53;20.13;;;;;;;;;;5105174;28;20055;-71
2022/11/22 02:56:45;;;;;;;33.30;20.35;;;;;;;;;;5084927;28;20073;-70
2022/11/22 02:59:11;;;;;;;35.38;20.27;;;;;;;;;;5086643;28;20047;-69
2022/11/22 03:01:37;;;;;;;34.15;20.88;;;;;;;;;;5086741;28;20046;-69
2022/11/22 03:04:03;;;;;;;35.63;20.55;;;;;;;;;;5089289;28;20043;-69
2022/11/22 03:06:29;;;;;;;30.42;19.00;;;;;;;;;;5086150;28;20047;-70
2022/11/22 03:08:55;;;;;;;35.10;19.88;;;;;;;;;;5090190;28;20035;-69
2022/11/22 03:11:21;;;;;;;34.33;19.98;;;;;;;;;;5081925;28;20051;-71
2022/11/22 03:13:47;;;;;;;33.45;20.63;;;;;;;;;;5084692;28;20090;-72
2022/11/22 03:16:13;;;;;;;32.00;20.38;;;;;;;;;;5080517;28;21700;-70
2022/11/22 03:18:39;;;;;;;29.33;19.58;;;;;;;;;;5088503;28;20052;-71
2022/11/22 03:21:06;;;;;;;30.90;19.65;;;;;;;;;;5087847;28;20046;-70
2022/11/22 03:23:32;;;;;;;33.35;20.40;;;;;;;;;;5087263;28;20132;-72
2022/11/22 03:25:58;;;;;;;34.38;19.73;;;;;;;;;;5086110;28;20113;-72
2022/11/22 03:28:25;;;;;;;37.90;20.50;;;;;;;;;;5086941;28;20669;-72
2022/11/22 03:30:51;;;;;;;31.90;20.15;;;;;;;;;;5089554;28;20180;-72
2022/11/22 03:33:17;;;;;;;34.97;21.08;;;;;;;;;;5087442;28;20746;-72
2022/11/22 03:35:43;;;;;;;32.28;18.77;;;;;;;;;;5086350;28;20174;-72
2022/11/22 03:38:09;;;;;;;32.92;19.88;;;;;;;;;;5086246;28;20051;-72
2022/11/22 03:40:35;;;;;;;32.58;20.27;;;;;;;;;;5086571;28;20047;-70
2022/11/22 03:43:01;;;;;;;32.08;19.45;;;;;;;;;;5087004;28;20039;-73
2022/11/22 03:45:28;;;;;;;33.08;20.27;;;;;;;;;;5086456;28;20043;-73
2022/11/22 03:47:54;;;;;;;34.20;20.00;;;;;;;;;;5072434;28;20556;-71
2022/11/22 03:50:20;;;;;;;32.67;19.73;;;;;;;;;;5083324;28;20043;-72
2022/11/22 03:52:46;;;;;;;33.00;18.73;;;;;;;;;;5086438;28;20428;-72
2022/11/22 03:55:12;;;;;;;32.00;19.38;;;;;;;;;;5082705;28;20134;-72
2022/11/22 03:57:38;;;;;;;32.00;19.35;;;;;;;;;;5087771;28;20800;-71
2022/11/22 04:00:05;;;;;;;31.48;19.63;;;;;;;;;;5088056;28;20040;-71
2022/11/22 04:02:31;;;;;;;32.58;19.10;;;;;;;;;;5083082;28;20044;-71
2022/11/22 04:04:57;;;;;;;32.38;20.45;;;;;;;;;;5100155;28;20149;-71
2022/11/22 04:07:23;;;;;;;34.35;19.98;;;;;;;;;;5104177;28;20055;-70
2022/11/22 04:09:49;;;;;;;32.70;20.23;;;;;;;;;;5104278;28;20074;-69
2022/11/22 04:12:15;;;;;;;33.40;19.42;;;;;;;;;;5101599;28;20131;-69
2022/11/22 04:17:43;;;;;;;31.48;19.35;;;;;;;;;;5103794;28;20052;-70
2022/11/22 04:23:14;;;;;;;32.13;19.27;;;;;;;;;;5088041;28;20490;-70
2022/11/22 04:25:41;;;;;;;30.27;19.80;;;;;;;;;;5088606;28;20082;-71
2022/11/22 04:28:08;;;;;;;27.33;19.48;;;;;;;;;;5091290;28;20138;-69
2022/11/22 04:33:20;;;;;;;34.75;20.55;;;;;;;;;;5091472;28;20074;-69
2022/11/22 04:35:46;;;;;;;34.08;20.38;;;;;;;;;;5090203;28;20050;-69
2022/11/22 04:38:12;;;;;;;29.40;19.08;;;;;;;;;;5090963;28;20134;-70
2022/11/22 04:40:38;;;;;;;32.90;20.02;;;;;;;;;;5090644;28;20058;-70
2022/11/22 04:45:49;;;;;;;33.70;20.30;;;;;;;;;;5089295;28;20525;-67
2022/11/22 04:48:16;;;;;;;35.40;19.83;;;;;;;;;;5087288;28;20043;-67
2022/11/22 04:53:27;;;;;;;30.27;19.33;;;;;;;;;;5084917;28;20039;-67
2022/11/22 04:55:53;;;;;;;32.47;20.33;;;;;;;;;;5090379;28;20040;-67
2022/11/22 04:58:19;;;;;;;32.58;20.38;;;;;;;;;;5089429;28;20042;-67
2022/11/22 05:00:45;;;;;;;36.60;19.88;;;;;;;;;;5091060;27;20040;-67
2022/11/22 05:03:11;;;;;;;32.97;18.83;;;;;;;;;;5091226;28;20116;-67
2022/11/22 05:05:38;;;;;;;30.73;18.90;;;;;;;;;;5106762;27;21507;-67
2022/11/22 05:08:05;;;;;;;32.58;19.20;;;;;;;;;;5091161;28;20098;-69
2022/11/22 05:10:55;;;;;;;31.45;19.08;;;;;;;;;;5090044;28;20047;-67
2022/11/22 05:13:18;;;;;;;34.00;18.23;;;;;;;;;;5087361;28;20053;-68
2022/11/22 05:15:44;;;;;;;34.30;19.08;;;;;;;;;;5087218;28;20043;-69
2022/11/22 05:18:11;;;;;;;29.27;17.88;;;;;;;;;;5089248;28;20062;-71
2022/11/22 05:20:37;;;;;;;31.33;17.58;;;;;;;;;;5105049;27;20490;-69
2022/11/22 05:25:48;;;;;;;32.97;18.30;;;;;;;;;;5089427;28;20040;-67
2022/11/22 05:28:14;;;;;;;31.83;17.27;;;;;;;;;;5089805;27;20058;-70
2022/11/22 05:30:40;;;;;;;30.60;17.70;;;;;;;;;;5108149;27;20049;-70
2022/11/22 05:33:06;;;;;;;27.20;17.08;;;;;;;;;;5089499;28;20051;-69
2022/11/22 05:35:32;;;;;;;30.48;18.13;;;;;;;;;;5087174;28;20079;-70
2022/11/22 05:37:58;;;;;;;31.92;18.10;;;;;;;;;;5087093;28;20461;-69
2022/11/22 05:40:24;;;;;;;34.08;17.17;;;;;;;;;;5090728;28;20047;-70
2022/11/22 05:42:50;;;;;;;33.17;17.23;;;;;;;;;;5089718;28;20070;-70
2022/11/22 05:45:16;;;;;;;29.38;16.65;;;;;;;;;;5087291;28;20051;-69
2022/11/22 05:47:42;;;;;;;29.85;17.45;;;;;;;;;;5089526;28;20035;-70
2022/11/22 05:50:08;;;;;;;36.25;16.25;;;;;;;;;;5088034;28;20516;-70
2022/11/22 05:52:35;;;;;;;32.80;16.55;;;;;;;;;;5087063;28;20054;-70
2022/11/22 05:55:01;;;;;;;36.20;16.80;;;;;;;;;;5088598;28;20392;-69
2022/11/22 05:57:27;;;;;;;33.15;17.38;;;;;;;;;;5084773;28;20065;-67
2022/11/22 05:59:53;;;;;;;35.25;16.92;;;;;;;;;;5086736;28;20482;-67
2022/11/22 06:02:19;;;;;;;32.85;15.90;;;;;;;;;;5086346;28;20051;-69
2022/11/22 06:04:45;;;;;;;26.45;15.55;;;;;;;;;;5086003;28;20092;-67
2022/11/22 06:07:11;;;;;;;30.35;15.38;;;;;;;;;;5086873;28;20083;-68
2022/11/22 06:09:37;;;;;;;31.58;15.98;;;;;;;;;;5081459;28;20054;-68
2022/11/22 06:12:04;;;;;;;34.90;15.15;;;;;;;;;;5090791;27;20043;-68
2022/11/22 06:14:30;;;;;;;36.13;15.35;;;;;;;;;;5090200;27;20183;-68
2022/11/22 06:16:56;;;;;;;25.75;14.52;;;;;;;;;;5085784;28;20597;-68
2022/11/22 06:19:22;;;;;;;30.40;13.95;;;;;;;;;;5086074;28;20058;-70
2022/11/22 06:21:48;;;;;;;27.25;14.68;;;;;;;;;;5089806;28;20405;-67
2022/11/22 06:24:14;;;;;;;24.85;14.43;;;;;;;;;;5080201;28;20142;-67
2022/11/22 06:26:40;;;;;;;30.90;14.52;;;;;;;;;;5070398;28;20051;-70
2022/11/22 06:29:06;;;;;;;28.50;13.77;;;;;;;;;;5081156;28;20532;-69
2022/11/22 06:31:32;;;;;;;25.75;13.35;;;;;;;;;;5076249;28;20040;-71
2022/11/22 06:33:59;;;;;;;30.25;13.68;;;;;;;;;;5083146;28;20058;-71
2022/11/22 06:36:26;;;;;;;29.48;13.70;;;;;;;;;;5082991;28;20063;-67
2022/11/22 06:38:53;;;;;;;34.75;14.00;;;;;;;;;;5085705;28;20046;-70
2022/11/22 06:41:23;;;;;;;31.25;15.10;;;;;;;;;;5068713;28;20100;-70
2022/11/22 06:43:50;;;;;;;32.63;14.35;;;;;;;;;;5085200;28;20048;-70
2022/11/22 06:46:17;;;;;;;29.45;14.20;;;;;;;;;;5087197;28;20039;-69
2022/11/22 06:48:43;;;;;;;31.58;13.93;;;;;;;;;;5102338;28;20139;-68
2022/11/22 06:51:10;;;;;;;34.30;13.90;;;;;;;;;;5088276;28;20463;-70
2022/11/22 06:53:37;;;;;;;30.52;13.60;;;;;;;;;;5104476;28;20052;-68
2022/11/22 06:56:04;;;;;;;30.38;14.10;;;;;;;;;;5107721;28;20043;-68
2022/11/22 06:58:30;;;;;;;24.88;12.88;;;;;;;;;;5089690;28;20092;-70
2022/11/22 07:01:00;;;;;;;22.77;12.43;;;;;;;;;;5105815;28;20142;-68
2022/11/22 07:03:27;;;;;;;27.80;12.85;;;;;;;;;;5080751;28;20054;-70
2022/11/22 07:05:53;;;;;;;37.88;13.15;;;;;;;;;;5083827;28;20043;-69
2022/11/22 07:08:19;;;;;;;24.98;12.18;;;;;;;;;;5087789;28;20040;-70
2022/11/22 07:10:45;;;;;;;28.85;12.73;;;;;;;;;;5085298;28;20047;-68
2022/11/22 07:13:11;;;;;;;30.92;12.25;;;;;;;;;;5087076;28;20066;-68
2022/11/22 07:15:37;;;;;;;33.72;11.63;;;;;;;;;;5081222;28;20055;-70
2022/11/22 07:18:03;;;;;;;28.75;11.57;;;;;;;;;;5088717;28;20555;-70
2022/11/22 07:20:30;;;;;;;32.20;12.10;;;;;;;;;;5064149;28;20039;-68
2022/11/22 07:22:56;;;;;;;30.65;11.30;;;;;;;;;;5088360;28;20097;-69
2022/11/22 07:25:22;;;;;;;39.78;11.23;;;;;;;;;;5087418;28;20055;-70
2022/11/22 07:27:48;;;;;;;28.33;10.50;;;;;;;;;;5078903;28;20039;-68
2022/11/22 07:30:14;;;;;;;26.80;10.05;;;;;;;;;;5075759;28;20505;-70
2022/11/22 07:32:40;;;;;;;27.13;10.00;;;;;;;;;;5087660;28;20137;-70
2022/11/22 07:35:06;;;;;;;28.85;10.13;;;;;;;;;;5078683;28;20055;-70
2022/11/22 07:37:32;;;;;;;31.48;9.55;;;;;;;;;;5081009;28;20055;-70
2022/11/22 07:39:58;;;;;;;26.60;9.82;;;;;;;;;;5081639;28;20418;-69
2022/11/22 07:42:24;;;;;;;33.33;9.82;;;;;;;;;;5080326;28;20071;-70
2022/11/22 07:44:50;;;;;;;24.55;8.40;;;;;;;;;;5082193;28;20077;-70
2022/11/22 07:47:16;;;;;;;25.17;8.25;;;;;;;;;;5083528;28;20056;-69
2022/11/22 07:49:42;;;;;;;28.73;7.93;;;;;;;;;;5081976;28;20509;-70
2022/11/22 07:52:08;;;;;;;29.33;8.57;;;;;;;;;;5082170;28;20051;-70
2022/11/22 07:54:34;;;;;;;28.13;8.38;;;;;;;;;;5082199;28;20430;-69
2022/11/22 07:57:00;;;;;;;23.27;7.88;;;;;;;;;;5081584;28;20105;-68
2022/11/22 07:59:26;;;;;;;22.80;7.57;;;;;;;;;;5083824;28;20051;-69
2022/11/22 08:01:52;;;;;;;32.17;7.25;;;;;;;;;;5084595;28;20421;-70
2022/11/22 08:04:18;;;;;;;25.73;7.18;;;;;;;;;;5085041;28;20040;-70
2022/11/22 08:06:44;;;;;;;23.10;7.32;;;;;;;;;;5081277;28;20131;-68
2022/11/22 08:09:10;;;;;;;22.55;6.72;;;;;;;;;;5068802;28;20043;-70
2022/11/22 08:11:36;;;;;;;24.60;5.63;;;;;;;;;;5082094;28;20062;-68
2022/11/22 08:14:02;;;;;;;24.42;6.05;;;;;;;;;;5078518;27;20052;-71
2022/11/22 08:16:28;;;;;;;21.13;5.55;;;;;;;;;;5080339;28;20071;-70
2022/11/22 08:18:54;;;;;;;23.70;5.82;;;;;;;;;;5082140;28;20132;-70
2022/11/22 08:21:20;;;;;;;29.88;6.10;;;;;;;;;;5082053;28;20047;-69
2022/11/22 08:23:47;;;;;;;18.70;5.70;;;;;;;;;;5078343;28;20043;-69
2022/11/22 08:26:14;;;;;;;28.65;5.78;;;;;;;;;;5082486;28;20035;-69
2022/11/22 08:28:40;;;;;;;21.33;5.03;;;;;;;;;;5083362;28;20043;-68
2022/11/22 08:31:14;;;;;;;22.70;5.07;;;;;;;;;;5085989;28;20124;-69
2022/11/22 08:33:40;;;;;;;22.88;4.90;;;;;;;;;;5083003;27;20047;-69
2022/11/22 08:36:07;;;;;;;20.50;5.38;;;;;;;;;;5081875;28;20056;-69
2022/11/22 08:38:33;;;;;;;23.85;5.47;;;;;;;;;;5080899;28;20428;-69
2022/11/22 08:40:59;;;;;;;17.70;4.90;;;;;;;;;;5084127;28;20048;-71
2022/11/22 08:43:25;;;;;;;21.23;4.28;;;;;;;;;;5082288;28;20101;-69
2022/11/22 08:45:58;;;;;;;18.65;4.40;;;;;;;;;;5082655;28;20080;-69
2022/11/22 08:48:25;;;;;;;20.92;4.20;;;;;;;;;;5082321;28;20130;-71
2022/11/22 08:51:01;;;;;;;15.32;4.00;;;;;;;;;;5081388;28;20178;-69
2022/11/22 08:53:31;;;;;;;20.38;4.47;;;;;;;;;;5077568;28;21844;-70
2022/11/22 08:55:59;;;;;;;15.77;3.95;;;;;;;;;;5082153;28;20051;-69
2022/11/22 08:58:25;;;;;;;13.73;3.60;;;;;;;;;;5083046;27;20043;-68
2022/11/22 09:00:51;;;;;;;17.77;4.00;;;;;;;;;;5105217;28;20044;-68
2022/11/22 09:03:17;;;;;;;19.67;4.55;;;;;;;;;;5100251;28;20046;-70
2022/11/22 09:05:43;;;;;;;18.05;4.03;;;;;;;;;;5087213;28;20039;-70
2022/11/22 09:08:09;;;;;;;20.02;4.65;;;;;;;;;;5105680;28;20047;-70
2022/11/22 09:10:35;;;;;;;19.83;4.20;;;;;;;;;;5105303;28;20494;-70
2022/11/22 09:13:01;;;;;;;21.85;4.03;;;;;;;;;;5106789;27;20044;-71
2022/11/22 09:15:27;;;;;;;16.42;3.83;;;;;;;;;;5105476;28;20409;-70
2022/11/22 09:17:59;;;;;;;16.15;3.97;;;;;;;;;;5104648;28;20178;-70
2022/11/22 09:20:25;;;;;;;18.50;3.92;;;;;;;;;;5108376;27;20108;-70
2022/11/22 09:22:51;;;;;;;13.75;3.50;;;;;;;;;;5087743;28;20490;-70
2022/11/22 09:25:17;;;;;;;21.25;4.30;;;;;;;;;;5105367;28;20048;-70
2022/11/22 09:27:43;;;;;;;13.43;3.63;;;;;;;;;;5085917;28;20386;-70
2022/11/22 09:30:10;;;;;;;22.00;4.03;;;;;;;;;;5088849;28;20099;-70
2022/11/22 09:32:36;;;;;;;14.18;3.70;;;;;;;;;;5080872;28;20535;-70
2022/11/22 09:35:02;;;;;;;14.00;4.03;;;;;;;;;;5087823;28;20081;-69
2022/11/22 09:37:28;;;;;;;18.38;3.63;;;;;;;;;;5100994;27;20070;-70
2022/11/22 09:39:54;;;;;;;16.45;3.88;;;;;;;;;;5100860;27;20054;-70
2022/11/22 09:42:30;;;;;;;18.17;3.75;;;;;;;;;;5104926;28;20065;-70
2022/11/22 09:45:12;;;;;;;18.02;3.20;;;;;;;;;;5088382;28;20135;-69
2022/11/22 09:47:40;;;;;;;12.97;3.00;;;;;;;;;;5107135;28;20044;-70
2022/11/22 09:50:25;;;;;;;19.65;3.45;;;;;;;;;;5107318;27;20056;-69
2022/11/22 09:53:10;;;;;;;15.48;3.72;;;;;;;;;;5085826;28;20043;-67
2022/11/22 09:55:46;;;;;;;11.85;3.30;;;;;;;;;;5091026;27;20044;-69
2022/11/22 09:58:20;;;;;;;14.63;3.40;;;;;;;;;;5086391;28;20046;-69
2022/11/22 10:00:46;;;;;;;20.77;4.43;;;;;;;;;;5084515;28;20078;-68
2022/11/22 10:03:18;;;;;;;17.10;3.70;;;;;;;;;;5103974;28;20039;-69
2022/11/22 10:05:52;;;;;;;22.27;3.50;;;;;;;;;;5079742;28;20047;-69
2022/11/22 10:08:18;;;;;;;13.98;3.03;;;;;;;;;;5082944;28;20061;-69
2022/11/22 10:10:44;;;;;;;15.75;3.03;;;;;;;;;;5084769;28;20044;-69
2022/11/22 10:13:21;;;;;;;20.67;3.60;;;;;;;;;;5086338;28;20046;-69
2022/11/22 10:15:59;;;;;;;11.63;3.10;;;;;;;;;;5084084;28;20044;-69
2022/11/22 10:18:30;;;;;;;12.85;3.10;;;;;;;;;;5080844;28;20081;-69
2022/11/22 10:20:57;;;;;;;18.45;3.53;;;;;;;;;;5081610;28;20456;-68
2022/11/22 10:23:24;;;;;;;11.75;3.10;;;;;;;;;;5103412;28;20123;-69
2022/11/22 10:25:57;;;;;;;13.07;3.00;;;;;;;;;;5082750;27;20046;-68
2022/11/22 10:28:44;;;;;;;15.43;3.00;;;;;;;;;;5083797;27;20040;-69
2022/11/22 10:31:26;;;;;;;15.50;3.70;;;;;;;;;;5084606;28;20050;-68
2022/11/22 10:34:01;;;;;;;11.97;3.00;;;;;;;;;;5080754;28;20043;-68
2022/11/22 10:36:39;;;;;;;14.65;2.55;;;;;;;;;;5074113;28;20904;-70
2022/11/22 10:39:13;;;;;;;12.32;2.92;;;;;;;;;;5059054;28;20517;-69
2022/11/22 10:42:04;;;;;;;10.07;2.95;;;;;;;;;;5061912;28;20091;-68
2022/11/22 10:44:52;;;;;;;11.65;2.42;;;;;;;;;;5064306;28;20060;-69
2022/11/22 10:47:36;;;;;;;14.65;2.85;;;;;;;;;;5062106;28;20044;-68
2022/11/22 10:50:12;;;;;;;15.57;2.83;;;;;;;;;;5066858;28;20116;-68
2022/11/22 10:52:48;;;;;;;10.60;2.30;;;;;;;;;;5059195;28;20048;-68
2022/11/22 10:55:20;;;;;;;14.25;2.90;;;;;;;;;;5060303;28;20458;-69
2022/11/22 10:58:05;;;;;;;13.63;2.50;;;;;;;;;;5060408;28;20130;-68
2022/11/22 11:00:31;;;;;;;14.05;2.85;;;;;;;;;;5047989;28;20045;-68
2022/11/22 11:02:57;;;;;;;9.52;2.40;;;;;;;;;;5064509;28;20048;-69
2022/11/22 11:05:28;;;;;;;10.70;2.22;;;;;;;;;;5062822;28;20060;-68
2022/11/22 11:07:54;;;;;;;10.80;2.72;;;;;;;;;;5063525;28;20492;-70
2022/11/22 11:10:26;;;;;;;11.73;2.50;;;;;;;;;;5064274;28;20084;-70
2022/11/22 11:12:57;;;;;;;12.88;2.60;;;;;;;;;;5061722;28;20052;-69
2022/11/22 11:15:41;;;;;;;8.93;2.20;;;;;;;;;;5065310;28;20040;-68
2022/11/22 11:18:28;;;;;;;11.82;2.40;;;;;;;;;;5067054;28;20044;-68
2022/11/22 11:20:54;;;;;;;12.82;2.10;;;;;;;;;;5045321;28;20053;-68
2022/11/22 11:23:19;;;;;;;15.13;2.72;;;;;;;;;;5055871;28;20506;-68
2022/11/22 11:25:47;;;;;;;10.23;2.60;;;;;;;;;;5055802;28;20045;-68
2022/11/22 11:28:17;;;;;;;15.25;2.42;;;;;;;;;;5056038;28;20059;-68
2022/11/22 11:31:06;;;;;;;10.10;2.30;;;;;;;;;;5041992;28;20056;-69
2022/11/22 11:33:34;;;;;;;8.80;2.17;;;;;;;;;;5055416;28;20404;-69
2022/11/22 11:36:09;;;;;;;7.68;2.33;;;;;;;;;;5038868;28;20048;-69
2022/11/22 11:38:44;;;;;;;11.10;2.92;;;;;;;;;;5062754;28;20131;-67
2022/11/22 11:41:23;;;;;;;8.23;2.45;;;;;;;;;;5054470;28;20049;-66
2022/11/22 11:43:49;;;;;;;10.02;2.47;;;;;;;;;;5051166;28;20041;-68
2022/11/22 11:46:26;;;;;;;10.63;2.53;;;;;;;;;;5046694;28;20048;-68
2022/11/22 11:48:56;;;;;;;7.57;2.13;;;;;;;;;;5037208;28;20048;-69
2022/11/22 11:51:25;;;;;;;10.50;2.33;;;;;;;;;;5039562;28;20060;-69
2022/11/22 11:53:59;;;;;;;8.57;1.98;;;;;;;;;;5036550;28;20400;-67
2022/11/22 11:56:33;;;;;;;12.07;2.67;;;;;;;;;;5040240;28;20199;-68
2022/11/22 11:59:02;;;;;;;9.73;2.10;;;;;;;;;;5039100;28;20048;-68
2022/11/22 12:01:32;;;;;;;8.25;2.10;;;;;;;;;;5023928;28;20060;-68
2022/11/22 12:04:01;;;;;;;11.65;1.75;;;;;;;;;;5039299;28;20072;-68
2022/11/22 12:06:31;;;;;;;13.43;2.35;;;;;;;;;;5038035;28;20053;-69
2022/11/22 12:08:58;;;;;;;8.77;2.03;;;;;;;;;;5039288;28;20045;-69
2022/11/22 12:11:30;;;;;;;9.30;2.50;;;;;;;;;;5042699;28;20067;-69
2022/11/22 12:14:00;;;;;;;9.95;2.15;;;;;;;;;;5040285;28;20049;-69
2022/11/22 12:16:32;;;;;;;10.45;2.25;;;;;;;;;;5038010;28;20061;-69
2022/11/22 12:19:13;;;;;;;8.48;1.98;;;;;;;;;;5036021;28;20096;-68
2022/11/22 12:21:51;;;;;;;9.10;2.40;;;;;;;;;;5035484;28;20047;-70
2022/11/22 12:24:30;;;;;;;7.90;2.38;;;;;;;;;;5041042;28;20064;-68
2022/11/22 12:26:56;;;;;;;7.18;1.83;;;;;;;;;;5036395;28;20075;-68
2022/11/22 12:29:23;;;;;;;9.55;2.13;;;;;;;;;;5044111;28;20051;-69
2022/11/22 12:31:52;;;;;;;10.40;2.17;;;;;;;;;;5044574;28;20095;-69
2022/11/22 12:34:26;;;;;;;7.68;2.10;;;;;;;;;;5046616;28;20055;-68
2022/11/22 12:36:56;;;;;;;9.30;1.88;;;;;;;;;;5046631;28;20037;-68
2022/11/22 12:39:24;;;;;;;8.48;2.30;;;;;;;;;;5047480;28;20041;-69
2022/11/22 12:41:52;;;;;;;6.88;1.88;;;;;;;;;;5047799;28;20171;-69
2022/11/22 12:44:20;;;;;;;6.72;2.13;;;;;;;;;;5049422;28;20599;-69
2022/11/22 12:46:51;;;;;;;6.25;2.47;;;;;;;;;;5048193;28;20037;-67
2022/11/22 12:49:28;;;;;;;11.57;2.45;;;;;;;;;;5048200;28;20041;-69
2022/11/22 12:52:03;;;;;;;7.68;1.92;;;;;;;;;;5046259;28;20044;-69
2022/11/22 12:54:32;;;;;;;7.32;2.78;;;;;;;;;;5046111;28;20036;-69
2022/11/22 12:57:00;;;;;;;5.25;1.70;;;;;;;;;;5049477;28;20037;-69
2022/11/22 12:59:37;;;;;;;6.45;1.58;;;;;;;;;;5046052;28;20052;-69
2022/11/22 13:02:22;;;;;;;7.78;1.73;;;;;;;;;;5048677;28;20068;-68
2022/11/22 13:04:57;;;;;;;7.05;2.03;;;;;;;;;;5047731;28;20049;-69
2022/11/22 13:07:37;;;;;;;5.82;1.50;;;;;;;;;;5048915;28;20084;-69
2022/11/22 13:10:06;;;;;;;6.50;1.42;;;;;;;;;;5050168;28;20044;-69
2022/11/22 13:12:37;;;;;;;9.50;1.70;;;;;;;;;;5047842;28;20404;-67
2022/11/22 13:15:03;;;;;;;5.75;1.42;;;;;;;;;;5050436;28;20040;-69
2022/11/22 13:17:33;;;;;;;8.00;1.63;;;;;;;;;;5045554;28;20041;-70
2022/11/22 13:20:02;;;;;;;8.63;1.98;;;;;;;;;;5044878;28;20090;-69
2022/11/22 13:22:48;;;;;;;4.65;1.70;;;;;;;;;;5044427;28;20048;-69
2022/11/22 13:25:37;;;;;;;8.65;2.13;;;;;;;;;;5045979;28;20508;-68
2022/11/22 13:28:16;;;;;;;9.35;2.00;;;;;;;;;;5023480;28;20140;-69
2022/11/22 13:31:02;;;;;;;5.03;1.48;;;;;;;;;;5044270;28;20128;-69
2022/11/22 13:33:27;;;;;;;6.13;1.80;;;;;;;;;;5047102;28;20049;-68
2022/11/22 13:36:13;;;;;;;6.97;1.90;;;;;;;;;;5044687;28;20063;-69
2022/11/22 13:38:42;;;;;;;6.38;2.47;;;;;;;;;;5046058;28;20389;-70
2022/11/22 13:41:40;;;;;;;6.55;2.15;;;;;;;;;;5043534;28;20080;-70
2022/11/22 13:44:21;;;;;;;8.73;1.70;;;;;;;;;;5011061;28;20052;-69
2022/11/22 13:46:57;;;;;;;6.90;1.98;;;;;;;;;;5043023;28;20048;-68
2022/11/22 13:49:33;;;;;;;7.05;1.85;;;;;;;;;;5050103;28;21772;-67
2022/11/22 13:52:03;;;;;;;8.27;2.08;;;;;;;;;;5045884;28;20040;-68
2022/11/22 13:54:31;;;;;;;6.65;2.17;;;;;;;;;;5045941;28;20048;-68
2022/11/22 13:57:05;;;;;;;5.00;1.90;;;;;;;;;;5047735;28;20033;-70
2022/11/22 13:59:31;;;;;;;6.70;1.88;;;;;;;;;;5047807;28;20456;-68
2022/11/22 14:02:01;;;;;;;9.40;2.35;;;;;;;;;;5047603;28;20041;-68
2022/11/22 14:04:32;;;;;;;6.72;1.88;;;;;;;;;;5045456;28;20126;-69
2022/11/22 14:07:01;;;;;;;7.18;1.85;;;;;;;;;;5042999;28;20502;-68
2022/11/22 14:09:42;;;;;;;7.10;1.88;;;;;;;;;;5047565;28;20040;-68
2022/11/22 14:12:32;;;;;;;6.70;2.00;;;;;;;;;;5043416;28;20394;-67
2022/11/22 14:15:16;;;;;;;6.95;1.90;;;;;;;;;;5049109;28;20044;-70
2022/11/22 14:18:01;;;;;;;8.57;1.77;;;;;;;;;;5019559;28;20065;-67
2022/11/22 14:20:36;;;;;;;8.48;2.20;;;;;;;;;;5035999;28;20033;-67
2022/11/22 14:23:21;;;;;;;9.50;2.08;;;;;;;;;;5042853;28;20550;-70
2022/11/22 14:25:50;;;;;;;5.57;2.10;;;;;;;;;;5041035;28;20055;-67
2022/11/22 14:28:22;;;;;;;4.03;1.60;;;;;;;;;;5044656;28;20056;-68
2022/11/22 14:30:52;;;;;;;5.25;1.80;;;;;;;;;;5041376;28;20111;-68
2022/11/22 14:33:18;;;;;;;4.82;1.67;;;;;;;;;;5038286;28;20041;-68
2022/11/22 14:36:03;;;;;;;9.32;1.70;;;;;;;;;;5049718;28;20054;-69
2022/11/22 14:38:31;;;;;;;6.65;1.92;;;;;;;;;;5046001;28;20041;-68
2022/11/22 14:41:16;;;;;;;4.22;1.48;;;;;;;;;;5038540;28;20046;-68
2022/11/22 14:43:42;;;;;;;4.55;1.60;;;;;;;;;;5046156;28;20579;-68
2022/11/22 14:46:19;;;;;;;3.17;1.50;;;;;;;;;;5048170;28;20052;-68
2022/11/22 14:48:54;;;;;;;6.32;1.70;;;;;;;;;;5046370;28;20041;-68
2022/11/22 14:51:27;;;;;;;3.53;1.42;;;;;;;;;;5044299;28;20407;-68
2022/11/22 14:53:59;;;;;;;4.60;1.88;;;;;;;;;;5045984;28;20068;-68
2022/11/22 14:56:33;;;;;;;4.55;1.70;;;;;;;;;;5046198;28;20458;-68